Main page
METAR-TAF:

METAR-TAF

Airports :

Multan International Airport

Multan, Pakistan

latitude: 30-12-12N, longitude: 71-25-09E, elevation: 122 m

Current weather observation

The report was made 56 minutes ago, at 23:55 UTC
Calm wind
Temperature 14°C
Humidity 82%
Pressure 1016 hPa
Visibility: 3500 m
smoke

METAR: OPMT 202355Z 00000KT 3500 FU NSC 14/11 Q1016 TEMPO 3000

Time: 05:51 (00:51 UTC)

Forecast

The report was made 3 hours and 6 minutes ago, at 21:45 UTC
Forecast valid from 21 at 00 UTC to 21 at 18 UTC
Wind 5 kt from the Northeast
Visibility: 4000 m
Few clouds at a height of 12000 ft
smoke
Probability 30% :
Temporary
from 21 at 01 UTC to 21 at 05 UTC
Visibility: 1500 m
mist
Temporary
from 21 at 06 UTC to 21 at 08 UTC
Wind kt from the North
Visibility: 2000 m
smoke

TAF: OPMT 202145Z 2100/2118 05005KT 4000 FU FEW120 TN12/2101Z TX27/2110 PROB30 TEMPO 2101/2105 00000K 1500 BR NSC TEMPO 2106/2108 00000KT 2000 FU NSC

Weather observations and forecasts of more than 4000 airports (METAR and TAF reports).

The available stations are represented by yellow and red dots on the map.

Hover mouse over dot to see the name of the station.

Then click to see weather observations and forecasts.

To change the map : click on the green buttons with a black cross to zoom in, on the green button with a dash to zoom out, or on the green arrows for adjacent maps.


METAR-TAF: